Terminal Aerodrome Forecast
Issued by NWS Cleveland, OH

Home | Current Version | Previous Version | Text Only | Print | Product List | Glossary Off
Versions: 1 2 3 4 5 6 7 8 9 10 11 12 13 14 15 16 17 18 19 20 21 22 23 24 25 26 27 28

000
FTUS41 KCLE 132300
TAFTOL
TAF
KTOL 132330Z 1400/1424 20014G22KT P6SM BKN070 WS010/21040KT
     FM140900 20015G29KT 6SM -SHRA BKN050 OVC100 WS017/21045KT
     FM141200 22016G32KT 5SM -SHRA BR VCTS OVC040CB
     FM141400 19022G30KT 3SM SHRA BR VCTS OVC025CB
     FM141900 25020G28KT 4SM -SHRA BR OVC012
     FM142200 33015KT 5SM -SHRA BR OVC015=

USA.gov is the U.S. government's official web portal to all federal, state and local government web resources and services.